Time;durP1;ratioP1;P1;durP2;ratioP2;P2;SDS_P1;SDS_P2;PMS_P1;PMS_P2;Temp;Humidity;BMP_temperature;BMP_pressure;BME280_temperature;BME280_humidity;BME280_pressure;Samples;Min_cycle;Max_cycle;Signal;HPM_P1;HPM_P2
2023/05/08 00:01:41;;;;;;;32.72;12.40;;;;;;;;;;5071733;28;20025;-63
2023/05/08 00:04:07;;;;;;;26.05;9.90;;;;;;;;;;5071734;28;20501;-64
2023/05/08 00:06:33;;;;;;;32.20;10.65;;;;;;;;;;5071482;28;20029;-64
2023/05/08 00:08:59;;;;;;;28.95;10.57;;;;;;;;;;5070407;28;20031;-63
2023/05/08 00:11:25;;;;;;;34.13;11.43;;;;;;;;;;5071417;28;20013;-64
2023/05/08 00:13:51;;;;;;;32.47;12.57;;;;;;;;;;5071427;28;20028;-64
2023/05/08 00:16:17;;;;;;;33.65;11.07;;;;;;;;;;5071357;28;20068;-65
2023/05/08 00:18:44;;;;;;;29.55;11.73;;;;;;;;;;5071296;28;20051;-64
2023/05/08 00:21:10;;;;;;;32.45;10.73;;;;;;;;;;5071112;28;20057;-64
2023/05/08 00:23:36;;;;;;;30.80;11.20;;;;;;;;;;5070128;28;20020;-64
2023/05/08 00:26:02;;;;;;;30.70;10.90;;;;;;;;;;5071145;28;20397;-63
2023/05/08 00:28:28;;;;;;;31.45;12.70;;;;;;;;;;5070210;28;20222;-64
2023/05/08 00:30:54;;;;;;;25.58;11.20;;;;;;;;;;5070982;28;20151;-64
2023/05/08 00:33:20;;;;;;;36.38;11.60;;;;;;;;;;5070927;28;20086;-64
2023/05/08 00:35:46;;;;;;;37.65;11.80;;;;;;;;;;5071295;28;20031;-64
2023/05/08 00:38:12;;;;;;;36.58;11.70;;;;;;;;;;5071185;28;20465;-64
2023/05/08 00:40:38;;;;;;;46.22;13.43;;;;;;;;;;5071187;28;20111;-63
2023/05/08 00:43:04;;;;;;;28.63;12.13;;;;;;;;;;5071198;28;20020;-64
2023/05/08 00:45:36;;;;;;;46.42;13.02;;;;;;;;;;5069680;28;20029;-63
2023/05/08 00:48:02;;;;;;;36.40;12.38;;;;;;;;;;5071152;28;20469;-64
2023/05/08 00:50:29;;;;;;;38.25;12.43;;;;;;;;;;5071004;28;20021;-64
2023/05/08 00:52:56;;;;;;;42.95;13.90;;;;;;;;;;5071259;28;20017;-63
2023/05/08 00:55:22;;;;;;;28.80;10.65;;;;;;;;;;5070912;28;20021;-63
2023/05/08 00:57:48;;;;;;;52.17;12.90;;;;;;;;;;5074769;28;20024;-63
2023/05/08 01:00:16;;;;;;;42.33;13.18;;;;;;;;;;5074192;28;20541;-64
2023/05/08 01:02:43;;;;;;;50.22;12.82;;;;;;;;;;5074947;28;20116;-64
2023/05/08 01:05:09;;;;;;;39.95;11.68;;;;;;;;;;5075374;28;20031;-63
2023/05/08 01:07:35;;;;;;;39.55;11.68;;;;;;;;;;5074566;28;20059;-64
2023/05/08 01:10:01;;;;;;;34.67;11.52;;;;;;;;;;5075020;28;20025;-64
2023/05/08 01:12:38;;;;;;;41.72;11.50;;;;;;;;;;5075035;28;20025;-64
2023/05/08 01:15:04;;;;;;;41.80;12.38;;;;;;;;;;5074939;28;20025;-64
2023/05/08 01:17:49;;;;;;;41.92;11.90;;;;;;;;;;5073471;28;20029;-63
2023/05/08 01:20:19;;;;;;;35.45;12.18;;;;;;;;;;5074537;28;20028;-63
2023/05/08 01:23:00;;;;;;;45.78;11.45;;;;;;;;;;5074773;28;20020;-63
2023/05/08 01:25:42;;;;;;;44.00;12.88;;;;;;;;;;5074793;28;20092;-64
2023/05/08 01:28:35;;;;;;;36.10;11.15;;;;;;;;;;5074490;28;20025;-63
2023/05/08 01:31:05;;;;;;;50.20;13.32;;;;;;;;;;5074087;28;20048;-63
2023/05/08 01:33:50;;;;;;;42.58;11.63;;;;;;;;;;5073198;28;20048;-63
2023/05/08 01:36:16;;;;;;;62.72;11.80;;;;;;;;;;5074227;28;20480;-63
2023/05/08 01:38:55;;;;;;;32.13;9.52;;;;;;;;;;5074363;28;20108;-63
2023/05/08 01:41:26;;;;;;;64.88;13.25;;;;;;;;;;5073923;28;20626;-63
2023/05/08 01:44:11;;;;;;;47.58;9.93;;;;;;;;;;5072891;28;20021;-64
2023/05/08 01:46:37;;;;;;;38.10;9.52;;;;;;;;;;5074084;28;20063;-63
2023/05/08 01:49:06;;;;;;;37.95;9.43;;;;;;;;;;5074145;28;20145;-63
2023/05/08 01:51:36;;;;;;;53.30;10.73;;;;;;;;;;5073408;28;20028;-63
2023/05/08 01:54:04;;;;;;;60.42;9.80;;;;;;;;;;5073637;28;20513;-63
2023/05/08 01:56:31;;;;;;;40.10;9.98;;;;;;;;;;5074003;28;20035;-63
2023/05/08 01:58:58;;;;;;;62.90;10.70;;;;;;;;;;5073831;28;20017;-63
2023/05/08 02:01:24;;;;;;;75.78;11.10;;;;;;;;;;5074049;28;20028;-63
2023/05/08 02:03:51;;;;;;;99.22;10.77;;;;;;;;;;5074023;28;20024;-63
2023/05/08 02:06:19;;;;;;;60.92;11.15;;;;;;;;;;5073694;28;20086;-63
2023/05/08 02:08:45;;;;;;;70.25;11.52;;;;;;;;;;5071427;28;20035;-64
2023/05/08 02:11:12;;;;;;;102.60;12.15;;;;;;;;;;5073669;28;20024;-64
2023/05/08 02:13:39;;;;;;;72.97;11.63;;;;;;;;;;5073731;28;20168;-63
2023/05/08 02:16:07;;;;;;;125.03;16.23;;;;;;;;;;5073547;28;20031;-63
2023/05/08 02:18:33;;;;;;;67.68;13.80;;;;;;;;;;5073703;28;20024;-63
2023/05/08 02:21:00;;;;;;;124.90;13.88;;;;;;;;;;5073488;28;20605;-64
2023/05/08 02:23:27;;;;;;;132.95;13.38;;;;;;;;;;5073448;28;20606;-63
2023/05/08 02:25:54;;;;;;;89.72;13.27;;;;;;;;;;5072209;28;20487;-63
2023/05/08 02:28:20;;;;;;;111.18;15.20;;;;;;;;;;5073143;28;20021;-64
2023/05/08 02:30:46;;;;;;;71.65;13.15;;;;;;;;;;5073215;28;20064;-63
2023/05/08 02:33:13;;;;;;;78.95;14.13;;;;;;;;;;5073231;28;20603;-63
2023/05/08 02:35:41;;;;;;;45.53;12.68;;;;;;;;;;5072105;28;20443;-63
2023/05/08 02:38:09;;;;;;;41.47;13.80;;;;;;;;;;5073396;28;20082;-64
2023/05/08 02:40:36;;;;;;;43.80;13.70;;;;;;;;;;5073150;28;20495;-63
2023/05/08 02:43:02;;;;;;;43.92;15.10;;;;;;;;;;5072268;28;20024;-64
2023/05/08 02:45:32;;;;;;;47.30;15.95;;;;;;;;;;5073315;28;20020;-63
2023/05/08 02:48:10;;;;;;;41.30;15.02;;;;;;;;;;5073072;28;20041;-63
2023/05/08 02:50:54;;;;;;;47.78;15.95;;;;;;;;;;5072884;28;20113;-64
2023/05/08 02:53:24;;;;;;;43.08;16.00;;;;;;;;;;5072872;28;20036;-64
2023/05/08 02:55:53;;;;;;;38.90;15.18;;;;;;;;;;5073021;28;20031;-63
2023/05/08 02:58:24;;;;;;;43.22;14.18;;;;;;;;;;5073100;28;20426;-63
2023/05/08 03:01:05;;;;;;;42.60;14.70;;;;;;;;;;5071870;28;20028;-63
2023/05/08 03:03:44;;;;;;;44.90;14.75;;;;;;;;;;5072566;28;20060;-64
2023/05/08 03:06:16;;;;;;;48.38;15.15;;;;;;;;;;5072605;28;20056;-63
2023/05/08 03:08:42;;;;;;;36.50;14.65;;;;;;;;;;5072711;28;20111;-63
2023/05/08 03:11:11;;;;;;;40.58;13.68;;;;;;;;;;5072909;28;20024;-64
2023/05/08 03:13:38;;;;;;;63.47;15.05;;;;;;;;;;5072251;28;20489;-63
2023/05/08 03:16:05;;;;;;;45.47;14.32;;;;;;;;;;5072540;28;20024;-63
2023/05/08 03:18:34;;;;;;;55.78;15.48;;;;;;;;;;5071382;28;20593;-63
2023/05/08 03:21:01;;;;;;;54.85;16.42;;;;;;;;;;5072418;28;20063;-65
2023/05/08 03:23:28;;;;;;;48.35;16.20;;;;;;;;;;5072492;28;20029;-63
2023/05/08 03:25:57;;;;;;;51.25;16.95;;;;;;;;;;5071723;28;20082;-64
2023/05/08 03:28:23;;;;;;;47.08;18.75;;;;;;;;;;5072210;28;20037;-63
2023/05/08 03:30:50;;;;;;;52.20;18.17;;;;;;;;;;5071976;28;20098;-63
2023/05/08 03:33:16;;;;;;;50.45;17.05;;;;;;;;;;5072202;28;20024;-64
2023/05/08 03:35:44;;;;;;;101.75;20.48;;;;;;;;;;5071291;28;20025;-63
2023/05/08 03:38:10;;;;;;;100.22;21.60;;;;;;;;;;5071837;28;20042;-63
2023/05/08 03:40:37;;;;;;;60.55;20.92;;;;;;;;;;5072018;28;20025;-62
2023/05/08 03:43:05;;;;;;;80.65;18.38;;;;;;;;;;5071865;28;20127;-63
2023/05/08 03:45:34;;;;;;;60.30;20.38;;;;;;;;;;5071877;28;20112;-66
2023/05/08 03:48:01;;;;;;;53.78;20.55;;;;;;;;;;5071847;28;20180;-63
2023/05/08 03:50:28;;;;;;;49.28;19.08;;;;;;;;;;5071937;28;20028;-63
2023/05/08 03:52:54;;;;;;;50.90;20.77;;;;;;;;;;5070831;28;20047;-63
2023/05/08 03:55:20;;;;;;;49.10;20.17;;;;;;;;;;5070599;28;20024;-63
2023/05/08 03:57:53;;;;;;;48.15;18.45;;;;;;;;;;5071619;28;20025;-62
2023/05/08 04:00:26;;;;;;;41.67;16.98;;;;;;;;;;5071303;28;20023;-63
2023/05/08 04:02:56;;;;;;;50.80;21.20;;;;;;;;;;5071589;28;20020;-64
2023/05/08 04:05:22;;;;;;;48.80;18.17;;;;;;;;;;5071754;28;20032;-63
2023/05/08 04:08:12;;;;;;;52.20;20.33;;;;;;;;;;5071415;28;20651;-64
2023/05/08 04:10:43;;;;;;;48.60;19.90;;;;;;;;;;5070898;28;20474;-65
2023/05/08 04:13:11;;;;;;;58.13;22.93;;;;;;;;;;5070181;28;20504;-63
2023/05/08 04:15:45;;;;;;;48.15;19.55;;;;;;;;;;5071547;28;20496;-62
2023/05/08 04:18:14;;;;;;;41.17;18.25;;;;;;;;;;5071581;28;20066;-63
2023/05/08 04:20:41;;;;;;;45.33;17.83;;;;;;;;;;5071247;28;20028;-63
2023/05/08 04:23:08;;;;;;;36.80;18.17;;;;;;;;;;5071204;28;20048;-64
2023/05/08 04:25:36;;;;;;;34.42;14.77;;;;;;;;;;5070401;28;20035;-64
2023/05/08 04:28:02;;;;;;;39.05;16.85;;;;;;;;;;5071252;28;20123;-63
2023/05/08 04:30:28;;;;;;;35.30;15.00;;;;;;;;;;5070680;28;20058;-62
2023/05/08 04:32:55;;;;;;;35.17;14.43;;;;;;;;;;5071084;28;20056;-64
2023/05/08 04:35:21;;;;;;;32.95;12.90;;;;;;;;;;5070859;28;20056;-64
2023/05/08 04:37:47;;;;;;;36.92;15.15;;;;;;;;;;5071212;28;20419;-63
2023/05/08 04:40:13;;;;;;;40.50;14.00;;;;;;;;;;5070254;28;20098;-63
2023/05/08 04:42:41;;;;;;;45.08;17.13;;;;;;;;;;5071047;28;20103;-62
2023/05/08 04:45:08;;;;;;;45.65;17.17;;;;;;;;;;5069715;28;20353;-63
2023/05/08 04:47:34;;;;;;;38.80;14.32;;;;;;;;;;5070860;28;20388;-64
2023/05/08 04:50:00;;;;;;;45.08;16.77;;;;;;;;;;5071075;28;20024;-63
2023/05/08 04:52:26;;;;;;;36.78;15.32;;;;;;;;;;5070999;28;20663;-64
2023/05/08 04:54:52;;;;;;;34.20;17.40;;;;;;;;;;5071103;28;20483;-64
2023/05/08 04:57:19;;;;;;;36.30;15.90;;;;;;;;;;5069540;28;20610;-63
2023/05/08 04:59:45;;;;;;;34.00;16.27;;;;;;;;;;5071027;28;20440;-64
2023/05/08 05:02:11;;;;;;;24.63;14.68;;;;;;;;;;5071089;28;20028;-63
2023/05/08 05:04:37;;;;;;;37.67;15.40;;;;;;;;;;5070894;28;20023;-64
2023/05/08 05:07:03;;;;;;;35.28;16.90;;;;;;;;;;5070833;28;20071;-63
2023/05/08 05:09:29;;;;;;;20.10;12.43;;;;;;;;;;5070870;28;20104;-64
2023/05/08 05:11:56;;;;;;;27.38;14.07;;;;;;;;;;5070937;28;20099;-63
2023/05/08 05:14:22;;;;;;;28.02;11.20;;;;;;;;;;5068646;28;20025;-64
2023/05/08 05:16:48;;;;;;;28.33;14.98;;;;;;;;;;5070856;28;20021;-64
2023/05/08 05:19:14;;;;;;;17.92;10.60;;;;;;;;;;5070718;28;20032;-63
2023/05/08 05:21:40;;;;;;;24.42;11.50;;;;;;;;;;5070488;28;20027;-63
2023/05/08 05:24:06;;;;;;;30.90;12.23;;;;;;;;;;5070534;28;20435;-63
2023/05/08 05:26:32;;;;;;;28.75;12.00;;;;;;;;;;5070569;28;20024;-63
2023/05/08 05:28:58;;;;;;;34.33;16.83;;;;;;;;;;5070438;28;20033;-63
2023/05/08 05:31:24;;;;;;;34.95;15.15;;;;;;;;;;5069328;28;20048;-63
2023/05/08 05:33:51;;;;;;;32.22;13.95;;;;;;;;;;5070604;28;20029;-63
2023/05/08 05:36:17;;;;;;;27.75;14.65;;;;;;;;;;5069037;28;20025;-62
2023/05/08 05:38:43;;;;;;;31.58;17.05;;;;;;;;;;5070862;28;20355;-64
2023/05/08 05:41:09;;;;;;;28.63;14.73;;;;;;;;;;5070553;28;20082;-63
2023/05/08 05:43:35;;;;;;;28.95;15.40;;;;;;;;;;5073230;28;20091;-63
2023/05/08 05:46:05;;;;;;;28.83;15.38;;;;;;;;;;5064176;28;20025;-63
2023/05/08 05:48:31;;;;;;;28.90;14.00;;;;;;;;;;5054596;28;20021;-63
2023/05/08 05:50:57;;;;;;;33.15;17.65;;;;;;;;;;5071171;28;20032;-64
2023/05/08 05:53:23;;;;;;;44.53;16.40;;;;;;;;;;5071472;28;20035;-63
2023/05/08 05:55:49;;;;;;;29.90;14.38;;;;;;;;;;5072469;28;20078;-63
2023/05/08 05:58:15;;;;;;;32.85;16.92;;;;;;;;;;5073119;28;20033;-64
2023/05/08 06:00:42;;;;;;;41.85;19.50;;;;;;;;;;5071960;28;20021;-64
2023/05/08 06:03:09;;;;;;;49.65;20.92;;;;;;;;;;5073860;28;20029;-63
2023/05/08 06:05:35;;;;;;;40.53;17.90;;;;;;;;;;5073875;28;20027;-63
2023/05/08 06:08:01;;;;;;;39.33;20.73;;;;;;;;;;5071654;28;20040;-64
2023/05/08 06:10:27;;;;;;;35.42;16.15;;;;;;;;;;5072837;28;20032;-64
2023/05/08 06:12:53;;;;;;;35.97;17.58;;;;;;;;;;5074297;28;20078;-64
2023/05/08 06:15:20;;;;;;;28.40;12.77;;;;;;;;;;5071971;28;20029;-64
2023/05/08 06:17:47;;;;;;;23.83;8.68;;;;;;;;;;5073348;28;20032;-64
2023/05/08 06:20:13;;;;;;;23.90;9.50;;;;;;;;;;5073613;28;20020;-64
2023/05/08 06:22:40;;;;;;;18.48;8.52;;;;;;;;;;5073797;28;20025;-65
2023/05/08 06:25:07;;;;;;;22.42;8.10;;;;;;;;;;5071017;28;20040;-64
2023/05/08 06:27:36;;;;;;;23.80;6.57;;;;;;;;;;5072610;28;20397;-64
2023/05/08 06:30:03;;;;;;;23.40;8.07;;;;;;;;;;5073107;28;20045;-64
2023/05/08 06:32:29;;;;;;;23.60;7.70;;;;;;;;;;5073726;28;20021;-64
2023/05/08 06:34:55;;;;;;;19.25;6.45;;;;;;;;;;5060313;28;20036;-63
2023/05/08 06:37:21;;;;;;;22.67;7.72;;;;;;;;;;5069833;28;20059;-64
2023/05/08 06:39:47;;;;;;;16.15;7.40;;;;;;;;;;5058184;28;20032;-64
2023/05/08 06:42:13;;;;;;;18.67;7.47;;;;;;;;;;5070965;28;20037;-63
2023/05/08 06:44:39;;;;;;;14.45;5.97;;;;;;;;;;5087858;28;20035;-64
2023/05/08 06:47:07;;;;;;;20.77;7.05;;;;;;;;;;5073319;28;20362;-63
2023/05/08 06:49:33;;;;;;;17.38;5.50;;;;;;;;;;5088743;28;20025;-63
2023/05/08 06:51:59;;;;;;;17.67;6.70;;;;;;;;;;5072841;28;20033;-66
2023/05/08 06:54:25;;;;;;;18.65;7.97;;;;;;;;;;5087809;28;20067;-63
2023/05/08 06:56:52;;;;;;;16.10;4.20;;;;;;;;;;5069785;28;20024;-71
2023/05/08 06:59:18;;;;;;;13.57;5.32;;;;;;;;;;5072243;28;20602;-64
2023/05/08 07:01:44;;;;;;;20.25;6.53;;;;;;;;;;5070172;28;20063;-64
2023/05/08 07:04:11;;;;;;;16.45;6.85;;;;;;;;;;5071213;28;20074;-64
2023/05/08 07:06:37;;;;;;;10.70;4.90;;;;;;;;;;5072629;28;20112;-65
2023/05/08 07:09:03;;;;;;;14.68;3.65;;;;;;;;;;5071055;28;20516;-63
2023/05/08 07:11:29;;;;;;;16.88;4.57;;;;;;;;;;5072668;28;20551;-64
2023/05/08 07:13:55;;;;;;;13.95;3.65;;;;;;;;;;5070981;28;20428;-64
2023/05/08 07:16:21;;;;;;;12.18;3.85;;;;;;;;;;5070814;28;20489;-64
2023/05/08 07:18:47;;;;;;;11.48;3.92;;;;;;;;;;5069644;28;20605;-64
2023/05/08 07:21:14;;;;;;;16.33;4.57;;;;;;;;;;5071686;28;20071;-64
2023/05/08 07:23:40;;;;;;;7.75;3.33;;;;;;;;;;5071356;28;20372;-64
2023/05/08 07:26:07;;;;;;;14.45;4.10;;;;;;;;;;5070688;28;20025;-64
2023/05/08 07:28:33;;;;;;;10.77;4.05;;;;;;;;;;5072220;28;20029;-65
2023/05/08 07:30:59;;;;;;;11.73;3.40;;;;;;;;;;5069578;28;20040;-64
2023/05/08 07:33:25;;;;;;;9.52;3.63;;;;;;;;;;5085088;28;20036;-65
2023/05/08 07:35:51;;;;;;;13.85;3.63;;;;;;;;;;5070161;28;20021;-64
2023/05/08 07:38:17;;;;;;;10.45;3.92;;;;;;;;;;5070315;28;20021;-64
2023/05/08 07:40:43;;;;;;;12.23;3.70;;;;;;;;;;5071660;28;20142;-64
2023/05/08 07:43:10;;;;;;;14.55;3.45;;;;;;;;;;5072279;28;20043;-64
2023/05/08 07:45:36;;;;;;;11.50;3.20;;;;;;;;;;5072079;28;20505;-64
2023/05/08 07:48:02;;;;;;;12.55;5.18;;;;;;;;;;5071389;28;20390;-63
2023/05/08 07:50:28;;;;;;;12.88;3.50;;;;;;;;;;5068940;28;20516;-64
2023/05/08 07:52:54;;;;;;;10.30;3.25;;;;;;;;;;5071674;28;20025;-64
2023/05/08 07:55:20;;;;;;;14.18;3.30;;;;;;;;;;5068987;28;20028;-69
2023/05/08 07:57:46;;;;;;;13.68;3.20;;;;;;;;;;5050752;28;20067;-69
2023/05/08 08:00:13;;;;;;;12.60;2.90;;;;;;;;;;5054567;28;20029;-71
2023/05/08 08:02:39;;;;;;;13.10;3.63;;;;;;;;;;5071167;28;20198;-70
2023/05/08 08:05:06;;;;;;;10.25;2.78;;;;;;;;;;5071432;28;20050;-69
2023/05/08 08:07:32;;;;;;;12.80;4.30;;;;;;;;;;5070397;28;20040;-74
2023/05/08 08:09:58;;;;;;;13.43;3.15;;;;;;;;;;5071445;28;20024;-71
2023/05/08 08:12:24;;;;;;;9.35;2.60;;;;;;;;;;5069820;28;20025;-72
2023/05/08 08:14:50;;;;;;;9.40;2.88;;;;;;;;;;5071365;28;20029;-74
2023/05/08 08:17:16;;;;;;;12.20;2.75;;;;;;;;;;5071323;28;20049;-68
2023/05/08 08:19:42;;;;;;;10.00;3.17;;;;;;;;;;5071326;28;20025;-73
2023/05/08 08:22:08;;;;;;;10.65;3.13;;;;;;;;;;5069798;28;20033;-68
2023/05/08 08:24:34;;;;;;;11.05;2.97;;;;;;;;;;5070112;28;20043;-68
2023/05/08 08:27:01;;;;;;;9.77;2.45;;;;;;;;;;5071242;28;20036;-70
2023/05/08 08:29:27;;;;;;;9.45;2.80;;;;;;;;;;5071334;28;20415;-70
2023/05/08 08:31:53;;;;;;;11.10;2.70;;;;;;;;;;5070465;28;20108;-70
2023/05/08 08:34:19;;;;;;;13.10;3.08;;;;;;;;;;5071197;28;20536;-71
2023/05/08 08:36:45;;;;;;;11.02;2.72;;;;;;;;;;5070973;28;20370;-65
2023/05/08 08:39:11;;;;;;;15.48;2.90;;;;;;;;;;5071535;28;20078;-64
2023/05/08 08:41:40;;;;;;;12.30;2.78;;;;;;;;;;5071245;28;20039;-66
2023/05/08 08:44:06;;;;;;;10.65;2.78;;;;;;;;;;5071055;28;20074;-65
2023/05/08 08:46:32;;;;;;;13.73;3.15;;;;;;;;;;5068922;28;20029;-65
2023/05/08 08:48:59;;;;;;;12.85;3.08;;;;;;;;;;5071070;28;20020;-64
2023/05/08 08:51:27;;;;;;;13.82;3.95;;;;;;;;;;5070845;28;20028;-65
2023/05/08 08:53:58;;;;;;;12.80;3.10;;;;;;;;;;5071230;28;20021;-65
2023/05/08 08:56:24;;;;;;;9.30;2.90;;;;;;;;;;5070230;28;20407;-65
2023/05/08 08:58:54;;;;;;;10.88;3.60;;;;;;;;;;5069110;28;20311;-65
2023/05/08 09:01:21;;;;;;;15.65;3.15;;;;;;;;;;5067996;28;20028;-65
2023/05/08 09:03:48;;;;;;;15.60;3.38;;;;;;;;;;5069391;28;20021;-66
2023/05/08 09:06:14;;;;;;;13.60;3.25;;;;;;;;;;5069011;28;20595;-66
2023/05/08 09:08:41;;;;;;;17.10;3.50;;;;;;;;;;5069215;28;20068;-64
2023/05/08 09:11:07;;;;;;;9.50;3.03;;;;;;;;;;5068689;28;20480;-65
2023/05/08 09:13:33;;;;;;;10.73;3.13;;;;;;;;;;5070638;28;20081;-66
2023/05/08 09:15:59;;;;;;;12.00;3.28;;;;;;;;;;5070028;28;20017;-65
2023/05/08 09:18:26;;;;;;;13.50;3.05;;;;;;;;;;5073833;28;20059;-65
2023/05/08 09:20:52;;;;;;;9.60;3.17;;;;;;;;;;5073865;28;20629;-65
2023/05/08 09:23:18;;;;;;;14.40;3.45;;;;;;;;;;5074736;28;20021;-66
2023/05/08 09:25:45;;;;;;;13.68;3.17;;;;;;;;;;5074548;28;20024;-66
2023/05/08 09:28:16;;;;;;;8.30;3.00;;;;;;;;;;5074675;28;20044;-64
2023/05/08 09:30:57;;;;;;;12.18;3.13;;;;;;;;;;5073189;28;20090;-65
2023/05/08 09:33:25;;;;;;;17.35;3.28;;;;;;;;;;5072616;28;20032;-65
2023/05/08 09:35:51;;;;;;;12.50;3.42;;;;;;;;;;5074723;28;20035;-68
2023/05/08 09:38:36;;;;;;;15.63;3.42;;;;;;;;;;5074095;28;20029;-66
2023/05/08 09:41:06;;;;;;;13.50;4.40;;;;;;;;;;5074248;28;20044;-68
2023/05/08 09:43:32;;;;;;;11.35;3.60;;;;;;;;;;5074255;28;20512;-71
2023/05/08 09:45:58;;;;;;;9.93;3.03;;;;;;;;;;5071042;28;20024;-68
2023/05/08 09:48:37;;;;;;;15.23;3.13;;;;;;;;;;5067057;28;20036;-71
2023/05/08 09:51:06;;;;;;;8.27;3.13;;;;;;;;;;5073043;28;20100;-69
2023/05/08 09:53:32;;;;;;;10.80;2.88;;;;;;;;;;5074313;28;20447;-71
2023/05/08 09:55:58;;;;;;;8.70;2.72;;;;;;;;;;5072635;28;20359;-69
2023/05/08 09:58:26;;;;;;;9.00;2.85;;;;;;;;;;5073854;28;20028;-70
2023/05/08 10:00:52;;;;;;;16.75;4.15;;;;;;;;;;5074029;28;20459;-70
2023/05/08 10:03:18;;;;;;;11.65;3.05;;;;;;;;;;5074240;28;20016;-69
2023/05/08 10:05:46;;;;;;;10.40;3.28;;;;;;;;;;5073063;28;20035;-71
2023/05/08 10:08:18;;;;;;;12.85;3.58;;;;;;;;;;5073374;28;20546;-69
2023/05/08 10:10:44;;;;;;;12.32;3.83;;;;;;;;;;5073702;28;20384;-70
2023/05/08 10:13:10;;;;;;;12.32;3.58;;;;;;;;;;5073983;28;20020;-70
2023/05/08 10:15:37;;;;;;;10.68;3.17;;;;;;;;;;5073707;28;20024;-69
2023/05/08 10:18:04;;;;;;;9.23;3.30;;;;;;;;;;5073719;28;20469;-70
2023/05/08 10:20:31;;;;;;;10.65;3.47;;;;;;;;;;5073064;28;20063;-70
2023/05/08 10:22:57;;;;;;;13.75;3.17;;;;;;;;;;5071254;28;20028;-69
2023/05/08 10:25:24;;;;;;;13.57;3.28;;;;;;;;;;5070617;28;20021;-69
2023/05/08 10:27:56;;;;;;;11.52;3.60;;;;;;;;;;5071947;28;20032;-68
2023/05/08 10:30:26;;;;;;;11.43;3.85;;;;;;;;;;5067634;28;20508;-69
2023/05/08 10:32:54;;;;;;;14.45;3.25;;;;;;;;;;5073888;28;20148;-69
2023/05/08 10:35:20;;;;;;;7.95;3.38;;;;;;;;;;5073570;28;20358;-68
2023/05/08 10:37:47;;;;;;;11.90;3.00;;;;;;;;;;5072594;28;20025;-69
2023/05/08 10:40:19;;;;;;;9.77;3.13;;;;;;;;;;5073407;28;20029;-67
2023/05/08 10:42:46;;;;;;;8.85;3.50;;;;;;;;;;5073086;28;20051;-68
2023/05/08 10:45:12;;;;;;;9.63;3.58;;;;;;;;;;5073386;28;20060;-68
2023/05/08 10:47:48;;;;;;;10.43;4.07;;;;;;;;;;5073199;28;20036;-68
2023/05/08 10:50:32;;;;;;;15.73;3.15;;;;;;;;;;5073124;28;20020;-68
2023/05/08 10:53:20;;;;;;;6.95;3.20;;;;;;;;;;5070473;28;20036;-68
2023/05/08 10:55:49;;;;;;;8.98;2.65;;;;;;;;;;5072946;28;20132;-68
2023/05/08 10:58:30;;;;;;;10.13;3.47;;;;;;;;;;5072966;28;20091;-68
2023/05/08 11:00:58;;;;;;;8.15;3.00;;;;;;;;;;5073095;28;20025;-69
2023/05/08 11:03:25;;;;;;;13.48;3.47;;;;;;;;;;5072917;28;20024;-66
2023/05/08 11:05:51;;;;;;;8.25;2.90;;;;;;;;;;5072676;28;20629;-69
2023/05/08 11:08:18;;;;;;;7.63;2.78;;;;;;;;;;5072752;28;20039;-71
2023/05/08 11:10:49;;;;;;;8.02;3.25;;;;;;;;;;5071833;28;20021;-69
2023/05/08 11:13:15;;;;;;;6.97;3.30;;;;;;;;;;5072649;28;20504;-69
2023/05/08 11:15:41;;;;;;;10.35;3.30;;;;;;;;;;5072607;28;20030;-70
2023/05/08 11:18:10;;;;;;;9.93;3.55;;;;;;;;;;5072498;28;20385;-68
2023/05/08 11:21:03;;;;;;;10.98;3.30;;;;;;;;;;5072408;28;20020;-70
2023/05/08 11:23:32;;;;;;;10.20;3.92;;;;;;;;;;5070529;28;20028;-69
2023/05/08 11:26:11;;;;;;;11.20;3.42;;;;;;;;;;5071566;28;20071;-69
2023/05/08 11:28:37;;;;;;;13.02;3.47;;;;;;;;;;5072108;28;20070;-68
2023/05/08 11:31:04;;;;;;;10.55;3.30;;;;;;;;;;5072080;28;20044;-68
2023/05/08 11:33:32;;;;;;;5.85;2.83;;;;;;;;;;5072273;28;20036;-70
2023/05/08 11:35:59;;;;;;;12.43;4.55;;;;;;;;;;5072248;28;20048;-68
2023/05/08 11:38:34;;;;;;;9.93;3.50;;;;;;;;;;5072309;28;20047;-69
2023/05/08 11:41:04;;;;;;;9.25;3.78;;;;;;;;;;5071444;28;20023;-68
2023/05/08 11:43:36;;;;;;;6.93;3.33;;;;;;;;;;5072165;28;20046;-69
2023/05/08 11:46:05;;;;;;;9.40;3.50;;;;;;;;;;5071666;28;20055;-69
2023/05/08 11:48:31;;;;;;;10.40;3.60;;;;;;;;;;5071853;28;20097;-68
2023/05/08 11:50:58;;;;;;;10.63;3.72;;;;;;;;;;5071761;28;20027;-69
2023/05/08 11:53:24;;;;;;;13.88;3.95;;;;;;;;;;5072030;28;20020;-68
2023/05/08 11:55:54;;;;;;;13.43;4.55;;;;;;;;;;5071892;28;20025;-68
2023/05/08 11:58:20;;;;;;;13.90;4.22;;;;;;;;;;5071900;28;20020;-69
2023/05/08 12:00:47;;;;;;;13.40;3.65;;;;;;;;;;5070736;28;20477;-69
2023/05/08 12:03:17;;;;;;;9.70;3.63;;;;;;;;;;5071499;28;20029;-69
2023/05/08 12:05:43;;;;;;;11.13;3.30;;;;;;;;;;5072147;28;20029;-69
2023/05/08 12:08:10;;;;;;;9.30;3.47;;;;;;;;;;5071455;28;20044;-69
2023/05/08 12:10:40;;;;;;;15.90;3.78;;;;;;;;;;5071577;28;20017;-68
2023/05/08 12:13:16;;;;;;;8.35;3.15;;;;;;;;;;5071415;28;20028;-69
2023/05/08 12:15:42;;;;;;;8.48;3.08;;;;;;;;;;5071159;28;20031;-69
2023/05/08 12:18:09;;;;;;;7.30;2.80;;;;;;;;;;5070413;28;20024;-68
2023/05/08 12:20:35;;;;;;;9.77;2.92;;;;;;;;;;5071536;28;20063;-67
2023/05/08 12:23:02;;;;;;;4.35;2.40;;;;;;;;;;5071270;28;20099;-69
2023/05/08 12:25:28;;;;;;;11.40;2.95;;;;;;;;;;5071000;28;20028;-69
2023/05/08 12:27:54;;;;;;;11.73;2.95;;;;;;;;;;5071400;28;20032;-69
2023/05/08 12:30:20;;;;;;;9.15;2.30;;;;;;;;;;5071250;28;20386;-69
2023/05/08 12:32:46;;;;;;;9.60;3.03;;;;;;;;;;5070197;28;20028;-69
2023/05/08 12:35:13;;;;;;;13.10;3.10;;;;;;;;;;5071430;28;20393;-68
2023/05/08 12:37:40;;;;;;;8.80;2.80;;;;;;;;;;5070886;28;20059;-66
2023/05/08 12:40:06;;;;;;;3.25;1.60;;;;;;;;;;5071142;28;20099;-67
2023/05/08 12:42:46;;;;;;;5.32;2.55;;;;;;;;;;5071327;28;20111;-69
2023/05/08 12:45:23;;;;;;;8.95;3.08;;;;;;;;;;5069888;28;20031;-69
2023/05/08 12:47:50;;;;;;;6.55;3.17;;;;;;;;;;5068454;28;20036;-69
2023/05/08 12:50:17;;;;;;;9.60;2.92;;;;;;;;;;5070647;28;20024;-69
2023/05/08 12:52:43;;;;;;;8.77;2.90;;;;;;;;;;5068356;28;20063;-69
2023/05/08 12:55:26;;;;;;;9.40;2.92;;;;;;;;;;5069878;28;20097;-69
2023/05/08 12:58:04;;;;;;;10.93;3.17;;;;;;;;;;5069231;28;20461;-69
2023/05/08 13:00:41;;;;;;;8.88;3.10;;;;;;;;;;5070811;28;20058;-68
2023/05/08 13:03:08;;;;;;;9.80;5.03;;;;;;;;;;5071040;28;20052;-68
2023/05/08 13:05:38;;;;;;;12.82;3.38;;;;;;;;;;5070975;28;20130;-68
2023/05/08 13:08:05;;;;;;;13.65;3.88;;;;;;;;;;5070967;28;20159;-68
2023/05/08 13:10:46;;;;;;;7.90;3.08;;;;;;;;;;5071155;28;20016;-68
2023/05/08 13:13:13;;;;;;;7.87;3.97;;;;;;;;;;5070206;28;20078;-68
2023/05/08 13:15:39;;;;;;;9.25;3.03;;;;;;;;;;5069426;28;20466;-69
2023/05/08 13:18:06;;;;;;;8.90;3.13;;;;;;;;;;5069071;28;20036;-68
2023/05/08 13:20:32;;;;;;;6.75;3.65;;;;;;;;;;5069173;28;20017;-68
2023/05/08 13:22:58;;;;;;;11.98;3.95;;;;;;;;;;5066756;28;20024;-67
2023/05/08 13:25:24;;;;;;;11.23;4.43;;;;;;;;;;5068795;28;20085;-69
2023/05/08 13:27:50;;;;;;;14.85;4.25;;;;;;;;;;5068490;28;20043;-67
2023/05/08 13:30:16;;;;;;;14.27;3.97;;;;;;;;;;5069459;28;20048;-68
2023/05/08 13:32:43;;;;;;;8.27;3.78;;;;;;;;;;5070744;28;20027;-68
2023/05/08 13:35:09;;;;;;;10.85;4.70;;;;;;;;;;5070721;28;20024;-68
2023/05/08 13:37:35;;;;;;;11.23;3.88;;;;;;;;;;5069321;28;20031;-68
2023/05/08 13:40:01;;;;;;;11.70;3.95;;;;;;;;;;5070492;28;20035;-68
2023/05/08 13:42:27;;;;;;;9.25;3.78;;;;;;;;;;5070438;28;20071;-67
2023/05/08 13:44:53;;;;;;;11.07;3.78;;;;;;;;;;5070772;28;20071;-68
2023/05/08 13:47:19;;;;;;;12.23;3.92;;;;;;;;;;5070356;28;20036;-68
2023/05/08 13:49:46;;;;;;;10.10;3.50;;;;;;;;;;5070371;28;20057;-69
2023/05/08 13:52:12;;;;;;;9.95;4.32;;;;;;;;;;5069328;28;20020;-68
2023/05/08 13:54:38;;;;;;;13.38;4.70;;;;;;;;;;5070283;28;20161;-67
2023/05/08 13:57:04;;;;;;;10.85;4.05;;;;;;;;;;5070500;28;20053;-67
2023/05/08 13:59:31;;;;;;;11.10;4.50;;;;;;;;;;5070185;28;20113;-67
2023/05/08 14:01:57;;;;;;;9.65;3.83;;;;;;;;;;5070327;28;20055;-69
2023/05/08 14:04:23;;;;;;;12.82;4.10;;;;;;;;;;5072796;28;20044;-69
2023/05/08 14:06:49;;;;;;;12.45;4.75;;;;;;;;;;5073844;28;20043;-68
2023/05/08 14:09:16;;;;;;;9.43;4.47;;;;;;;;;;5073134;28;20120;-69
2023/05/08 14:11:42;;;;;;;10.15;5.07;;;;;;;;;;5073703;28;20105;-70
2023/05/08 14:14:08;;;;;;;8.60;4.95;;;;;;;;;;5074044;28;20024;-67
2023/05/08 14:16:34;;;;;;;14.85;4.80;;;;;;;;;;5073809;28;20020;-69
2023/05/08 14:19:00;;;;;;;9.05;4.78;;;;;;;;;;5074325;28;20050;-67
2023/05/08 14:21:26;;;;;;;17.48;5.13;;;;;;;;;;5073751;28;20599;-68
2023/05/08 14:23:52;;;;;;;15.25;5.00;;;;;;;;;;5072148;28;20033;-68
2023/05/08 14:26:19;;;;;;;13.65;5.07;;;;;;;;;;5072202;28;20366;-68
2023/05/08 14:28:45;;;;;;;12.30;4.43;;;;;;;;;;5073766;28;20040;-68
2023/05/08 14:31:12;;;;;;;15.07;4.97;;;;;;;;;;5073465;28;20045;-68